CDT,Max TemperatureF,Mean TemperatureF,Min TemperatureF,Max Dew PointF,MeanDew PointF,Min DewpointF,Max Humidity, Mean Humidity, Min Humidity, Max Sea Level PressureIn, Mean Sea Level PressureIn, Min Sea Level PressureIn, Max VisibilityMiles, Mean VisibilityMiles, Min VisibilityMiles, Max Wind SpeedMPH, Mean Wind SpeedMPH, Max Gust SpeedMPH,PrecipitationIn, CloudCover, Events, WindDirDegrees
2011-9-1,93,80,68,72,68,64,94,70,41,30.18,30.10,30.04,10,8,3,10,1,17,0.00,0,,103
2011-9-2,96,81,66,70,65,61,100,66,32,30.09,30.03,29.94,10,8,1,8,1,,0.00,0,,107
2011-9-3,93,80,66,66,64,63,94,61,36,29.99,29.93,29.84,10,10,7,12,3,16,0.00,0,,117
2011-9-4,77,74,71,72,68,64,94,84,69,29.93,29.88,29.83,10,9,2,9,2,,0.33,3,,86
2011-9-5,73,66,60,72,67,57,100,94,82,29.82,29.64,29.51,10,7,2,23,7,33,6.50,7,,54
2011-9-6,60,58,57,57,55,54,94,88,82,29.92,29.71,29.54,10,8,2,14,10,23,0.14,8,,294
2011-9-7,66,62,57,59,56,54,94,82,68,30.05,29.98,29.91,10,10,10,7,5,,0.00,8,,315
2011-9-8,73,65,57,59,55,54,94,73,50,30.02,29.98,29.94,10,10,7,10,3,,0.00,5,,329
2011-9-9,78,66,53,59,55,52,94,71,39,30.01,29.97,29.94,10,9,0,6,1,,0.00,2,,249
2011-9-10,82,66,51,57,53,48,94,68,35,30.09,30.04,30.00,10,10,10,8,1,,0.00,0,,357
2011-9-11,82,68,53,63,57,52,94,72,37,30.15,30.09,30.06,10,10,10,7,1,,0.00,1,Thunderstorm,289
2011-9-12,84,70,57,64,60,54,94,71,45,30.16,30.10,30.04,10,10,6,9,1,,0.00,1,,309
2011-9-13,86,70,55,63,58,52,94,73,37,30.09,30.04,30.00,10,10,5,6,0,,0.00,0,,126
2011-9-14,86,70,55,64,59,52,94,73,37,30.04,29.99,29.91,10,10,7,7,1,,0.00,0,,198
2011-9-15,69,64,60,64,59,52,94,83,72,30.14,30.02,29.91,10,9,3,13,4,17,0.00,7,,327
2011-9-16,75,63,51,61,54,48,88,73,57,30.20,30.15,30.10,10,10,10,9,5,,0.00,2,,43
2011-9-17,77,65,53,61,54,48,88,69,50,30.27,30.21,30.16,10,10,5,10,6,,0.00,0,,73
2011-9-18,78,68,59,61,58,54,88,71,47,30.26,30.20,30.15,10,10,10,9,5,,0.00,1,,104
2011-9-19,75,68,62,63,57,54,88,69,57,30.18,30.11,30.03,10,10,10,10,7,17,0.01,1,,112
2011-9-20,66,63,60,64,62,59,94,92,88,30.10,30.05,30.01,10,9,2,12,6,,0.99,6,Thunderstorm,51
2011-9-21,82,73,64,70,66,63,100,83,58,30.10,30.06,30.02,10,7,0,7,1,,0.00,4,,103
2011-9-22,82,74,66,70,67,64,94,85,62,30.12,30.06,30.00,10,8,2,13,2,,0.10,4,Thunderstorm,69
2011-9-23,73,66,59,66,62,55,100,85,68,30.06,30.03,29.99,10,9,5,12,3,,0.31,6,,336
2011-9-24,78,63,48,57,52,46,94,73,39,30.05,30.00,29.94,10,9,4,7,1,,0.00,0,,28
2011-9-25,82,66,51,64,58,48,94,74,54,30.00,29.93,29.82,10,10,8,9,2,,0.00,0,,174
2011-9-26,80,71,62,70,64,59,94,86,61,29.93,29.88,29.84,10,9,0,13,3,18,0.04,4,Thunderstorm,221
2011-9-27,73,65,57,64,60,55,94,86,69,30.02,29.93,29.88,10,6,0,9,1,,0.00,5,,130
2011-9-28,80,68,55,64,59,54,100,80,42,29.96,29.90,29.85,10,6,0,8,1,,0.00,3,,267
2011-9-29,59,56,53,57,54,52,94,92,88,29.93,29.91,29.89,10,10,8,0,0,,0.00,0,,-1
2011-9-30,,,,,,,,,,,,,,,,,,,,,,